Time;durP1;ratioP1;P1;durP2;ratioP2;P2;SDS_P1;SDS_P2;PMS_P1;PMS_P2;Temp;Humidity;BMP_temperature;BMP_pressure;BME280_temperature;BME280_humidity;BME280_pressure;Samples;Min_cycle;Max_cycle;Signal;HPM_P1;HPM_P2
2022/04/16 00:00:30;;;;;;;14.30;10.13;;;11.50;59.50;;;;;;5047132;28;20041;-49
2022/04/16 00:02:57;;;;;;;14.60;10.45;;;11.50;59.50;;;;;;5044977;28;20036;-52
2022/04/16 00:05:24;;;;;;;13.93;10.68;;;11.50;59.50;;;;;;5047522;28;20400;-48
2022/04/16 00:08:08;;;;;;;15.27;10.48;;;11.50;59.40;;;;;;5049662;28;20895;-51
2022/04/16 00:10:37;;;;;;;12.38;10.52;;;11.50;59.20;;;;;;5044829;28;20045;-51
2022/04/16 00:13:04;;;;;;;11.82;8.98;;;11.40;59.10;;;;;;5031122;28;20405;-47
2022/04/16 00:15:31;;;;;;;11.40;8.90;;;11.40;59.00;;;;;;5048728;28;20041;-49
2022/04/16 00:17:58;;;;;;;12.35;9.23;;;11.40;58.80;;;;;;5048517;28;20044;-49
2022/04/16 00:20:27;;;;;;;9.80;8.77;;;11.30;58.70;;;;;;5042299;28;20045;-47
2022/04/16 00:22:54;;;;;;;12.25;9.20;;;11.30;58.60;;;;;;5044034;28;20036;-52
2022/04/16 00:25:24;;;;;;;12.95;9.52;;;11.20;58.60;;;;;;5048242;28;20102;-48
2022/04/16 00:27:55;;;;;;;13.57;9.27;;;11.20;58.60;;;;;;5044652;28;20540;-52
2022/04/16 00:30:22;;;;;;;12.30;9.57;;;11.10;58.60;;;;;;5043811;28;20080;-48
2022/04/16 00:32:51;;;;;;;14.13;10.23;;;11.10;58.50;;;;;;5048460;28;20644;-51
2022/04/16 00:35:22;;;;;;;12.35;9.77;;;11.00;58.50;;;;;;5044621;28;20040;-47
2022/04/16 00:37:53;;;;;;;14.75;9.82;;;11.00;58.50;;;;;;5048914;28;20043;-49
2022/04/16 00:40:24;;;;;;;11.25;9.38;;;10.90;58.50;;;;;;5042301;28;20080;-51
2022/04/16 00:42:51;;;;;;;12.18;9.65;;;10.90;58.70;;;;;;5045233;28;20102;-50
2022/04/16 00:45:21;;;;;;;12.27;8.90;;;10.80;58.50;;;;;;5044834;28;20474;-51
2022/04/16 00:47:50;;;;;;;11.05;9.18;;;10.80;58.50;;;;;;5048651;28;20041;-50
2022/04/16 00:50:19;;;;;;;11.13;9.93;;;10.70;58.60;;;;;;5044126;28;20508;-51
2022/04/16 00:52:50;;;;;;;12.02;10.00;;;10.70;58.70;;;;;;5045945;28;20255;-52
2022/04/16 00:55:19;;;;;;;13.68;9.55;;;10.60;58.80;;;;;;5046144;28;20048;-53
2022/04/16 00:57:46;;;;;;;11.10;9.48;;;10.60;58.90;;;;;;5044341;28;20089;-48
2022/04/16 01:00:14;;;;;;;11.88;9.35;;;10.60;59.00;;;;;;5046044;28;20052;-53
2022/04/16 01:02:48;;;;;;;11.57;9.73;;;10.50;59.00;;;;;;5048154;28;20049;-47
2022/04/16 01:05:15;;;;;;;12.98;10.60;;;10.50;59.00;;;;;;5011036;28;20057;-51
2022/04/16 01:07:59;;;;;;;15.00;10.82;;;10.40;59.00;;;;;;5043535;28;20049;-48
2022/04/16 01:10:29;;;;;;;12.93;9.63;;;10.40;59.70;;;;;;5046834;28;20064;-49
2022/04/16 01:13:18;;;;;;;12.68;10.65;;;10.40;59.00;;;;;;5030751;28;20041;-50
2022/04/16 01:15:46;;;;;;;11.35;9.82;;;10.40;60.00;;;;;;5040246;28;20044;-52
2022/04/16 01:18:13;;;;;;;12.40;9.82;;;10.30;59.20;;;;;;5043757;28;20041;-51
2022/04/16 01:20:41;;;;;;;12.80;10.02;;;10.30;59.20;;;;;;5047444;28;20503;-49
2022/04/16 01:23:09;;;;;;;12.75;10.93;;;10.30;59.30;;;;;;5048959;28;20048;-54
2022/04/16 01:25:36;;;;;;;12.00;9.63;;;10.20;59.30;;;;;;5044637;28;20099;-54
2022/04/16 01:28:04;;;;;;;11.75;9.50;;;10.20;59.40;;;;;;5042370;28;20044;-51
2022/04/16 01:30:31;;;;;;;11.65;9.95;;;10.20;59.50;;;;;;5047558;28;20435;-53
2022/04/16 01:33:03;;;;;;;11.18;9.27;;;10.10;60.10;;;;;;5047909;28;20082;-51
2022/04/16 01:35:34;;;;;;;11.32;8.98;;;10.10;59.50;;;;;;5041993;28;20447;-52
2022/04/16 01:38:04;;;;;;;11.13;9.85;;;10.10;60.10;;;;;;5047119;28;20044;-53
2022/04/16 01:40:31;;;;;;;10.77;8.68;;;10.00;59.70;;;;;;5046764;28;20037;-53
2022/04/16 01:43:01;;;;;;;11.23;8.95;;;10.00;59.60;;;;;;5023992;28;20037;-51
2022/04/16 01:45:27;;;;;;;11.85;8.25;;;10.00;59.70;;;;;;5042829;28;20114;-53
2022/04/16 01:47:54;;;;;;;10.43;8.57;;;10.00;59.70;;;;;;5049657;28;20047;-50
2022/04/16 01:50:22;;;;;;;10.20;8.63;;;10.00;59.80;;;;;;5051223;28;20087;-48
2022/04/16 01:52:48;;;;;;;10.90;7.78;;;9.90;59.80;;;;;;5044888;28;20041;-53
2022/04/16 01:55:16;;;;;;;11.93;8.65;;;9.90;59.80;;;;;;5049193;28;20114;-47
2022/04/16 01:57:43;;;;;;;11.50;9.25;;;9.90;59.90;;;;;;5051471;28;20451;-50
2022/04/16 02:00:14;;;;;;;16.20;9.68;;;9.90;59.90;;;;;;5049379;28;20061;-53
2022/04/16 02:02:43;;;;;;;11.88;9.77;;;9.90;60.10;;;;;;5051447;28;20392;-51
2022/04/16 02:05:11;;;;;;;12.75;10.05;;;9.80;59.80;;;;;;5045947;28;20043;-50
2022/04/16 02:07:39;;;;;;;10.32;8.95;;;9.80;59.90;;;;;;5051033;28;20113;-53
2022/04/16 02:10:07;;;;;;;12.82;10.30;;;9.80;59.90;;;;;;5042575;28;20053;-49
2022/04/16 02:12:37;;;;;;;11.57;9.68;;;9.80;60.00;;;;;;5038096;28;20033;-51
2022/04/16 02:15:07;;;;;;;12.18;9.10;;;9.80;60.00;;;;;;5045711;28;20044;-49
2022/04/16 02:17:35;;;;;;;11.68;9.35;;;9.70;60.00;;;;;;5048536;28;20032;-52
2022/04/16 02:20:03;;;;;;;12.93;10.00;;;9.70;59.90;;;;;;5046705;28;20524;-47
2022/04/16 02:22:44;;;;;;;13.30;10.35;;;9.70;59.90;;;;;;5048312;28;20106;-53
2022/04/16 02:25:13;;;;;;;14.07;10.52;;;9.70;60.50;;;;;;5048119;28;20075;-50
2022/04/16 02:27:41;;;;;;;12.23;9.30;;;9.60;59.90;;;;;;5050976;28;20040;-49
2022/04/16 02:30:13;;;;;;;10.77;8.98;;;9.60;59.80;;;;;;5050443;28;20037;-49
2022/04/16 02:32:43;;;;;;;11.55;8.80;;;9.60;59.90;;;;;;5130705;22;20048;-45
2022/04/16 02:35:13;;;;;;;12.23;8.73;;;9.50;59.80;;;;;;5068702;28;20436;-46
2022/04/16 02:37:40;;;;;;;9.25;7.72;;;9.50;59.80;;;;;;5070196;28;20451;-45
2022/04/16 02:40:10;;;;;;;10.20;7.93;;;9.50;59.80;;;;;;5070908;28;20052;-45
2022/04/16 02:42:38;;;;;;;10.60;7.70;;;9.40;59.80;;;;;;5049989;28;20037;-46
2022/04/16 02:47:59;;;;;;;8.20;7.15;;;9.40;59.90;;;;;;5050795;28;20041;-47
2022/04/16 02:50:28;;;;;;;11.45;8.00;;;9.40;59.90;;;;;;5062248;28;20609;-47
2022/04/16 02:52:58;;;;;;;8.95;7.75;;;9.30;59.70;;;;;;5063711;28;20062;-46
2022/04/16 02:55:26;;;;;;;10.05;8.07;;;9.30;59.80;;;;;;5068777;28;20041;-45
2022/04/16 02:57:55;;;;;;;11.07;8.00;;;9.30;59.80;;;;;;5070332;28;20151;-46
2022/04/16 03:00:24;;;;;;;11.63;8.65;;;9.20;59.80;;;;;;5062319;28;20105;-49
2022/04/16 03:02:52;;;;;;;11.30;8.63;;;9.20;59.90;;;;;;5069996;28;20090;-46
2022/04/16 03:05:21;;;;;;;10.95;8.98;;;9.20;59.90;;;;;;5068554;28;20070;-46
2022/04/16 03:07:48;;;;;;;12.30;9.35;;;9.10;59.90;;;;;;5070167;28;20052;-45
2022/04/16 03:10:15;;;;;;;13.13;9.80;;;9.10;60.10;;;;;;5066713;28;20044;-46
2022/04/16 03:12:51;;;;;;;10.75;9.13;;;9.10;60.10;;;;;;5070343;28;20495;-44
2022/04/16 03:18:07;;;;;;;12.95;8.82;;;9.00;60.10;;;;;;5090769;28;20090;-45
2022/04/16 03:20:34;;;;;;;10.18;8.43;;;9.00;60.00;;;;;;5066429;28;20040;-49
2022/04/16 03:23:03;;;;;;;10.05;8.38;;;8.90;60.00;;;;;;5070300;28;20703;-45
2022/04/16 03:25:30;;;;;;;13.30;8.95;;;8.90;60.00;;;;;;5068085;28;20647;-48
2022/04/16 03:27:59;;;;;;;12.20;9.25;;;8.90;60.10;;;;;;5067845;28;20072;-48
2022/04/16 03:30:26;;;;;;;10.68;9.02;;;8.90;60.40;;;;;;5068034;28;20048;-47
2022/04/16 03:32:56;;;;;;;11.65;8.48;;;8.80;60.20;;;;;;5070018;28;20492;-46
2022/04/16 03:35:24;;;;;;;10.82;9.48;;;8.80;60.10;;;;;;5068232;28;20779;-49
2022/04/16 03:37:51;;;;;;;11.13;9.32;;;8.80;60.20;;;;;;5064394;28;20045;-46
2022/04/16 03:40:19;;;;;;;13.18;9.25;;;8.80;60.20;;;;;;5067991;28;20769;-49
2022/04/16 03:42:51;;;;;;;11.77;9.30;;;8.80;60.30;;;;;;5069170;28;20068;-47
2022/04/16 03:45:23;;;;;;;9.85;8.23;;;8.70;60.50;;;;;;5067181;28;20105;-45
2022/04/16 03:47:54;;;;;;;8.95;7.63;;;8.70;60.40;;;;;;5064808;28;20102;-45
2022/04/16 03:50:22;;;;;;;11.70;7.93;;;8.70;60.20;;;;;;5068647;28;20098;-46
2022/04/16 03:52:50;;;;;;;11.70;8.35;;;8.70;60.10;;;;;;5067055;28;20052;-46
2022/04/16 04:00:58;;;;;;;13.95;9.75;;;8.60;60.00;;;;;;5067893;28;20041;-47
2022/04/16 04:03:25;;;;;;;12.18;9.20;;;8.60;60.10;;;;;;5069777;28;20119;-46
2022/04/16 04:05:56;;;;;;;11.98;9.13;;;8.50;60.10;;;;;;5065325;28;20040;-46
2022/04/16 04:08:25;;;;;;;11.18;9.18;;;8.50;60.20;;;;;;5067597;28;20067;-47
2022/04/16 04:10:52;;;;;;;12.13;9.05;;;8.50;60.30;;;;;;5067787;28;20047;-46
2022/04/16 04:13:19;;;;;;;13.70;9.63;;;8.50;60.30;;;;;;5061337;28;20068;-48
2022/04/16 04:15:46;;;;;;;13.43;9.43;;;8.40;60.30;;;;;;5062446;28;20044;-46
2022/04/16 04:18:15;;;;;;;12.02;9.50;;;8.40;60.30;;;;;;5067576;28;20068;-46
2022/04/16 04:20:42;;;;;;;13.90;10.00;;;8.40;60.30;;;;;;5058464;28;20082;-46
2022/04/16 04:23:09;;;;;;;11.93;9.13;;;8.40;60.30;;;;;;5068171;28;20454;-46
2022/04/16 04:25:38;;;;;;;12.55;9.85;;;8.30;60.30;;;;;;5066871;28;20076;-45
2022/04/16 04:28:05;;;;;;;13.48;9.90;;;8.30;60.40;;;;;;5065385;28;20051;-46
2022/04/16 04:30:31;;;;;;;13.13;9.38;;;8.30;60.50;;;;;;5069264;28;20102;-46
2022/04/16 04:32:58;;;;;;;14.40;10.10;;;8.30;60.50;;;;;;5067966;28;20040;-44
2022/04/16 04:35:26;;;;;;;12.73;9.10;;;8.20;60.50;;;;;;5063244;28;20405;-48
2022/04/16 04:37:53;;;;;;;15.52;10.32;;;8.20;60.50;;;;;;5064310;28;20429;-46
2022/04/16 04:40:20;;;;;;;15.02;10.77;;;8.20;60.50;;;;;;5050975;28;20459;-47
2022/04/16 04:42:47;;;;;;;15.30;9.65;;;8.20;60.60;;;;;;5068390;28;20040;-49
2022/04/16 04:45:15;;;;;;;14.68;10.45;;;8.20;60.60;;;;;;5063883;28;20157;-45
2022/04/16 04:47:42;;;;;;;13.57;10.65;;;8.20;60.60;;;;;;5068418;28;20110;-47
2022/04/16 04:50:09;;;;;;;17.10;11.35;;;8.20;60.70;;;;;;5068623;28;20036;-48
2022/04/16 04:52:40;;;;;;;15.07;10.55;;;8.10;60.80;;;;;;5064801;28;20159;-46
2022/04/16 04:55:09;;;;;;;13.20;9.70;;;8.10;60.90;;;;;;5064818;28;20101;-47
2022/04/16 04:57:37;;;;;;;13.25;9.70;;;7.90;60.80;;;;;;5067185;28;20090;-45
2022/04/16 05:00:10;;;;;;;11.70;8.80;;;8.10;60.90;;;;;;5065458;28;20223;-46
2022/04/16 05:02:45;;;;;;;13.55;9.68;;;8.10;60.90;;;;;;5068315;28;20035;-48
2022/04/16 05:05:12;;;;;;;14.13;9.85;;;8.10;61.30;;;;;;5065461;28;20041;-48
2022/04/16 05:07:43;;;;;;;13.70;9.50;;;8.10;61.00;;;;;;5068505;28;20457;-46
2022/04/16 05:10:10;;;;;;;14.57;10.85;;;8.10;61.10;;;;;;5065068;28;20048;-46
2022/04/16 05:12:37;;;;;;;14.15;10.52;;;8.10;61.20;;;;;;5066178;28;20045;-49
2022/04/16 05:15:05;;;;;;;13.25;9.65;;;8.10;61.20;;;;;;5048396;28;20131;-45
2022/04/16 05:17:32;;;;;;;13.15;9.57;;;8.10;61.30;;;;;;5068981;28;20045;-47
2022/04/16 05:19:58;;;;;;;13.75;10.52;;;8.10;61.40;;;;;;5069836;28;20072;-47
2022/04/16 05:22:27;;;;;;;14.95;10.07;;;8.10;61.50;;;;;;5066619;28;20060;-50
2022/04/16 05:24:54;;;;;;;11.75;9.13;;;8.10;61.70;;;;;;5065526;28;20068;-49
2022/04/16 05:27:20;;;;;;;14.25;10.15;;;8.10;61.70;;;;;;5073078;28;20503;-47
2022/04/16 05:30:02;;;;;;;16.73;10.30;;;8.20;61.80;;;;;;5061830;28;20066;-47
2022/04/16 05:32:34;;;;;;;17.15;11.32;;;8.20;61.90;;;;;;5072285;28;20093;-51
2022/04/16 05:35:01;;;;;;;14.90;11.48;;;8.20;62.20;;;;;;5068523;28;20064;-48
2022/04/16 05:37:29;;;;;;;15.20;11.43;;;8.20;62.10;;;;;;5073151;28;20059;-47
2022/04/16 05:39:55;;;;;;;18.25;12.05;;;8.20;62.20;;;;;;5070217;28;20694;-47
2022/04/16 05:42:23;;;;;;;15.93;11.48;;;8.20;62.30;;;;;;5072569;28;20048;-49
2022/04/16 05:44:50;;;;;;;16.50;11.30;;;8.30;62.50;;;;;;5071725;28;20199;-47
2022/04/16 05:47:16;;;;;;;16.58;12.35;;;8.30;62.60;;;;;;5069071;28;20500;-47
2022/04/16 05:49:47;;;;;;;17.90;12.38;;;8.30;62.70;;;;;;5066705;28;20393;-49
2022/04/16 05:52:14;;;;;;;15.43;11.68;;;8.40;63.10;;;;;;5072220;28;20484;-49
2022/04/16 05:54:43;;;;;;;15.43;11.65;;;8.40;63.00;;;;;;5059929;28;20504;-49
2022/04/16 05:57:12;;;;;;;17.80;12.32;;;8.50;63.10;;;;;;5068190;28;20134;-52
2022/04/16 05:59:39;;;;;;;21.55;14.65;;;8.50;63.30;;;;;;5070761;28;20519;-49
2022/04/16 06:02:06;;;;;;;22.67;15.57;;;8.60;63.50;;;;;;5070967;28;20068;-52
2022/04/16 06:04:34;;;;;;;25.10;17.23;;;8.60;63.80;;;;;;5066972;28;20090;-50
2022/04/16 06:07:02;;;;;;;23.60;16.75;;;8.70;64.30;;;;;;5066066;28;20423;-50
2022/04/16 06:09:31;;;;;;;24.42;17.30;;;8.70;64.60;;;;;;5061449;28;20044;-50
2022/04/16 06:12:09;;;;;;;26.77;19.23;;;8.80;65.10;;;;;;5067049;28;20067;-48
2022/04/16 06:14:38;;;;;;;26.57;19.27;;;8.90;65.90;;;;;;5069183;28;20051;-48
2022/04/16 06:17:07;;;;;;;25.50;18.02;;;9.00;65.90;;;;;;5065855;28;20306;-52
2022/04/16 06:19:34;;;;;;;26.77;19.48;;;9.00;66.50;;;;;;5043155;28;20040;-48
2022/04/16 06:22:01;;;;;;;27.80;18.40;;;9.10;66.50;;;;;;5066629;28;20055;-52
2022/04/16 06:24:27;;;;;;;31.52;20.13;;;9.20;67.00;;;;;;5069546;28;20075;-52
2022/04/16 06:26:55;;;;;;;26.52;18.27;;;9.30;67.30;;;;;;5030860;28;20400;-53
2022/04/16 06:29:22;;;;;;;23.92;18.65;;;9.40;67.50;;;;;;5052291;28;20048;-49
2022/04/16 06:31:48;;;;;;;26.17;17.15;;;9.50;67.70;;;;;;5051017;28;20056;-52
2022/04/16 06:34:16;;;;;;;28.50;19.42;;;9.60;67.80;;;;;;5055724;28;20671;-52
2022/04/16 06:36:42;;;;;;;29.38;20.55;;;9.70;68.00;;;;;;5046357;28;20072;-48
2022/04/16 06:39:09;;;;;;;29.90;20.67;;;9.80;68.30;;;;;;5065123;28;20028;-49
2022/04/16 06:41:36;;;;;;;29.67;19.92;;;9.90;68.40;;;;;;5030407;28;20131;-50
2022/04/16 06:44:03;;;;;;;25.63;19.20;;;10.00;68.60;;;;;;5054401;28;20442;-53
2022/04/16 06:46:30;;;;;;;30.10;19.42;;;10.10;68.70;;;;;;5042570;28;20040;-51
2022/04/16 06:48:56;;;;;;;26.13;19.33;;;10.20;68.60;;;;;;5041412;28;20593;-51
2022/04/16 06:51:23;;;;;;;30.42;20.50;;;10.30;68.50;;;;;;5047129;28;20037;-48
2022/04/16 06:53:51;;;;;;;25.45;19.50;;;10.40;68.50;;;;;;5055015;28;20114;-52
2022/04/16 06:56:17;;;;;;;28.63;18.73;;;10.50;68.50;;;;;;5054863;28;20158;-50
2022/04/16 06:58:50;;;;;;;27.00;19.10;;;10.60;68.40;;;;;;5059487;28;20048;-52
2022/04/16 07:01:17;;;;;;;25.65;19.35;;;10.70;68.40;;;;;;5045544;28;20583;-53
2022/04/16 07:03:44;;;;;;;28.80;20.30;;;10.80;68.40;;;;;;5052981;28;20044;-48
2022/04/16 07:06:10;;;;;;;25.70;19.30;;;10.80;68.30;;;;;;5046933;28;20052;-49
2022/04/16 07:08:37;;;;;;;25.17;18.40;;;10.90;68.30;;;;;;5059038;28;20044;-52
2022/04/16 07:11:04;;;;;;;28.55;19.15;;;11.00;68.20;;;;;;5054082;28;20052;-48
2022/04/16 07:13:30;;;;;;;25.80;18.02;;;11.00;68.20;;;;;;5058282;28;20102;-53
2022/04/16 07:15:57;;;;;;;25.65;18.90;;;11.10;68.20;;;;;;5056206;28;20044;-51
2022/04/16 07:18:25;;;;;;;22.45;18.15;;;11.20;68.10;;;;;;5060967;28;20060;-50
2022/04/16 07:20:52;;;;;;;25.38;17.88;;;11.30;68.10;;;;;;5063793;28;20036;-50
2022/04/16 07:23:19;;;;;;;25.13;17.70;;;11.30;67.90;;;;;;5058088;28;20033;-50
2022/04/16 07:25:45;;;;;;;21.75;17.70;;;11.40;67.80;;;;;;5061936;28;20127;-51
2022/04/16 07:28:15;;;;;;;25.08;17.15;;;11.50;68.50;;;;;;5058186;28;20048;-49
2022/04/16 07:30:46;;;;;;;22.98;16.92;;;11.60;67.70;;;;;;5066796;28;20162;-48
2022/04/16 07:33:13;;;;;;;22.52;16.75;;;11.60;67.60;;;;;;5066403;28;20044;-52
2022/04/16 07:35:40;;;;;;;22.05;15.85;;;11.70;67.20;;;;;;5067889;28;20045;-48
2022/04/16 07:38:07;;;;;;;21.42;15.93;;;11.80;67.20;;;;;;5070231;28;20048;-49
2022/04/16 07:40:37;;;;;;;21.42;16.27;;;11.80;67.20;;;;;;5064922;28;20090;-49
2022/04/16 07:43:04;;;;;;;20.02;15.75;;;11.90;67.00;;;;;;5066005;28;20037;-52
2022/04/16 07:45:32;;;;;;;22.90;14.88;;;12.00;66.90;;;;;;5068379;28;20137;-48
2022/04/16 07:47:59;;;;;;;22.17;16.83;;;12.00;66.70;;;;;;5070569;28;20127;-50
2022/04/16 07:50:28;;;;;;;21.40;16.20;;;12.10;66.60;;;;;;5066548;28;20106;-49
2022/04/16 07:52:54;;;;;;;20.65;15.88;;;12.10;66.80;;;;;;5070748;28;20063;-49
2022/04/16 07:55:22;;;;;;;23.52;16.25;;;12.20;66.40;;;;;;5067833;28;20072;-48
2022/04/16 07:57:49;;;;;;;21.17;16.63;;;12.30;66.40;;;;;;5071375;28;20047;-51
2022/04/16 08:00:22;;;;;;;22.45;15.60;;;12.30;66.10;;;;;;5065560;28;20493;-48
2022/04/16 08:02:49;;;;;;;20.50;15.32;;;12.40;66.10;;;;;;5070632;28;20036;-50
2022/04/16 08:05:16;;;;;;;21.00;16.23;;;12.40;65.90;;;;;;5068100;28;20068;-48
2022/04/16 08:07:43;;;;;;;21.38;13.75;;;12.50;66.00;;;;;;5070735;28;20040;-50
2022/04/16 08:10:10;;;;;;;19.40;14.38;;;12.60;65.90;;;;;;5061815;28;20547;-52
2022/04/16 08:12:38;;;;;;;17.02;13.45;;;12.60;65.80;;;;;;5070253;28;20090;-48
2022/04/16 08:15:09;;;;;;;20.70;15.15;;;12.70;65.60;;;;;;5068658;28;20033;-48
2022/04/16 08:17:38;;;;;;;19.35;14.10;;;12.70;65.40;;;;;;5086624;28;20070;-50
2022/04/16 08:20:06;;;;;;;16.05;13.02;;;12.80;65.40;;;;;;5063205;28;20090;-49
2022/04/16 08:22:38;;;;;;;19.83;14.95;;;12.80;65.10;;;;;;5067995;28;20032;-49
2022/04/16 08:27:52;;;;;;;17.02;13.13;;;12.90;64.60;;;;;;5067974;28;20279;-52
2022/04/16 08:30:22;;;;;;;16.45;12.25;;;13.00;64.50;;;;;;5067170;28;20504;-48
2022/04/16 08:32:50;;;;;;;16.20;13.00;;;13.00;64.50;;;;;;5067773;28;20041;-50
2022/04/16 08:35:18;;;;;;;18.13;12.68;;;13.10;64.20;;;;;;5086173;22;20053;-51
2022/04/16 08:37:46;;;;;;;16.33;13.15;;;13.10;64.10;;;;;;5065991;28;20037;-52
2022/04/16 08:40:25;;;;;;;14.90;11.35;;;13.20;64.00;;;;;;5069073;28;20082;-50
2022/04/16 08:42:57;;;;;;;14.77;11.57;;;13.30;63.80;;;;;;5070433;28;20177;-53
2022/04/16 08:45:27;;;;;;;15.68;10.98;;;13.30;63.70;;;;;;5048806;28;20086;-53
2022/04/16 08:47:54;;;;;;;15.43;11.02;;;13.40;63.20;;;;;;5063670;28;20492;-50
2022/04/16 08:50:23;;;;;;;11.98;10.52;;;13.40;62.90;;;;;;5066512;28;20041;-53
2022/04/16 08:52:53;;;;;;;15.52;10.98;;;13.50;63.00;;;;;;5070255;28;20064;-52
2022/04/16 08:55:23;;;;;;;13.43;9.88;;;13.60;63.00;;;;;;5067585;28;20048;-53
2022/04/16 08:57:54;;;;;;;14.18;9.68;;;13.60;62.70;;;;;;5067756;28;20454;-54
2022/04/16 09:00:28;;;;;;;12.70;9.65;;;13.70;62.20;;;;;;5069444;28;20450;-53
2022/04/16 09:02:57;;;;;;;14.27;9.95;;;13.70;61.90;;;;;;5043382;28;20114;-53
2022/04/16 09:05:26;;;;;;;12.82;9.38;;;13.80;61.70;;;;;;5053788;28;20041;-52
2022/04/16 09:07:59;;;;;;;13.30;10.80;;;13.80;61.60;;;;;;5049154;28;20040;-51
2022/04/16 09:10:28;;;;;;;12.05;10.30;;;13.90;61.30;;;;;;5057545;28;20044;-54
2022/04/16 09:12:57;;;;;;;11.05;9.60;;;13.90;61.30;;;;;;5059625;28;20511;-51
2022/04/16 09:15:25;;;;;;;9.77;8.52;;;14.00;61.00;;;;;;5060603;28;20477;-54
2022/04/16 09:18:05;;;;;;;11.48;9.30;;;14.10;60.70;;;;;;5056064;28;20036;-51
2022/04/16 09:20:37;;;;;;;10.07;8.25;;;14.10;60.10;;;;;;5054408;28;20058;-50
2022/04/16 09:23:22;;;;;;;11.88;8.10;;;14.20;60.00;;;;;;5056642;28;20645;-51
2022/04/16 09:25:50;;;;;;;7.90;6.80;;;14.20;60.20;;;;;;5058606;28;20037;-52
2022/04/16 09:28:19;;;;;;;7.95;6.22;;;14.30;59.40;;;;;;5052718;28;20055;-53
2022/04/16 09:30:53;;;;;;;10.30;6.85;;;14.30;59.10;;;;;;5061024;28;20059;-54
2022/04/16 09:33:25;;;;;;;5.68;5.00;;;14.40;58.40;;;;;;5049881;28;20044;-54
2022/04/16 09:35:54;;;;;;;4.78;3.97;;;14.40;57.90;;;;;;5061678;28;20037;-53
2022/04/16 09:38:21;;;;;;;5.47;4.85;;;14.40;57.40;;;;;;5043058;28;20044;-54
2022/04/16 09:40:48;;;;;;;8.32;5.55;;;14.50;57.20;;;;;;5062698;28;20079;-52
2022/04/16 09:43:15;;;;;;;6.00;5.40;;;14.60;56.80;;;;;;5050293;28;20428;-55
2022/04/16 09:45:42;;;;;;;4.20;3.80;;;14.60;57.20;;;;;;5059709;28;20240;-53
2022/04/16 09:48:11;;;;;;;4.10;3.42;;;14.70;56.70;;;;;;5046393;28;20041;-55
2022/04/16 09:50:41;;;;;;;4.68;4.03;;;14.70;56.10;;;;;;5063670;28;20070;-53
2022/04/16 09:53:08;;;;;;;5.72;3.83;;;14.80;56.00;;;;;;5046699;28;20126;-54
2022/04/16 09:55:36;;;;;;;4.60;3.45;;;14.90;55.90;;;;;;5062056;28;20044;-53
2022/04/16 09:58:05;;;;;;;4.38;3.80;;;14.90;55.60;;;;;;5055491;28;20125;-51
2022/04/16 10:00:34;;;;;;;5.88;2.75;;;15.00;54.80;;;;;;5043225;28;20072;-54
2022/04/16 10:03:20;;;;;;;4.43;3.00;;;15.00;54.60;;;;;;5055572;28;20551;-54
2022/04/16 10:05:47;;;;;;;3.08;2.78;;;15.10;54.50;;;;;;5063021;28;20041;-54
2022/04/16 10:08:14;;;;;;;2.28;2.08;;;15.10;53.90;;;;;;5054571;28;20123;-52
2022/04/16 10:10:46;;;;;;;1.90;1.50;;;15.20;53.50;;;;;;5063500;28;20098;-53
2022/04/16 10:13:15;;;;;;;2.05;1.85;;;15.20;52.90;;;;;;5033714;28;20459;-54
2022/04/16 10:15:50;;;;;;;2.33;1.83;;;15.30;52.60;;;;;;5061102;28;20036;-55
2022/04/16 10:18:17;;;;;;;2.38;2.17;;;15.40;52.50;;;;;;5056147;28;20086;-53
2022/04/16 10:20:50;;;;;;;2.97;2.70;;;15.40;52.00;;;;;;5056757;28;20117;-50
2022/04/16 10:23:59;;;;;;;4.20;2.55;;;15.40;51.80;;;;;;5056595;28;20101;-53
2022/04/16 10:26:37;;;;;;;2.85;2.60;;;15.50;51.60;;;;;;4970196;28;20062;-51
2022/04/16 10:29:06;;;;;;;2.92;2.63;;;15.50;51.60;;;;;;5056014;28;20416;-52
2022/04/16 10:31:37;;;;;;;3.60;3.17;;;15.50;52.10;;;;;;5063296;28;20079;-54
2022/04/16 10:34:11;;;;;;;5.07;3.65;;;15.50;51.60;;;;;;5065956;28;20127;-52
2022/04/16 10:36:44;;;;;;;4.53;3.58;;;15.50;51.50;;;;;;5031901;28;20036;-50
2022/04/16 10:39:18;;;;;;;4.18;3.65;;;15.60;51.10;;;;;;5055892;28;20033;-52
2022/04/16 10:42:01;;;;;;;4.82;4.22;;;15.70;51.50;;;;;;5064971;28;20037;-50
2022/04/16 10:44:41;;;;;;;5.13;4.13;;;15.60;51.20;;;;;;5070223;28;20130;-56
2022/04/16 10:47:20;;;;;;;5.93;4.28;;;15.70;51.60;;;;;;5052634;28;20083;-50
2022/04/16 10:49:47;;;;;;;5.15;4.13;;;15.70;51.40;;;;;;5059456;28;20044;-53
2022/04/16 10:52:23;;;;;;;7.25;4.93;;;15.80;51.50;;;;;;5069449;28;20048;-52
2022/04/16 10:55:03;;;;;;;5.38;3.88;;;15.80;51.30;;;;;;5062819;28;20053;-53
2022/04/16 10:57:32;;;;;;;6.03;4.50;;;15.80;51.70;;;;;;5033236;28;20607;-50
2022/04/16 11:00:17;;;;;;;6.65;4.65;;;15.90;51.70;;;;;;5054634;28;20132;-55
2022/04/16 11:03:11;;;;;;;4.68;4.20;;;15.90;51.40;;;;;;5067785;28;20507;-52
2022/04/16 11:05:45;;;;;;;5.88;4.55;;;16.00;51.00;;;;;;5068530;28;20055;-50
2022/04/16 11:08:22;;;;;;;4.45;4.05;;;16.00;51.30;;;;;;5067961;28;20044;-51
2022/04/16 11:10:56;;;;;;;4.88;4.25;;;16.10;51.20;;;;;;5061056;28;20071;-55
2022/04/16 11:13:32;;;;;;;6.53;5.07;;;16.10;50.90;;;;;;5068442;28;20044;-50
2022/04/16 11:16:01;;;;;;;4.80;4.20;;;16.20;50.90;;;;;;5068040;28;20041;-51
2022/04/16 11:18:45;;;;;;;4.93;4.40;;;16.20;50.70;;;;;;5052029;28;20051;-54
2022/04/16 11:21:13;;;;;;;8.80;4.65;;;16.30;50.30;;;;;;5066507;28;20470;-50
2022/04/16 11:23:49;;;;;;;5.18;4.53;;;16.30;50.50;;;;;;5070020;28;20504;-54
2022/04/16 11:35:13;;;;;;;6.10;5.22;;;16.50;50.70;;;;;;5010964;28;20053;-54
2022/04/16 11:37:40;;;;;;;5.07;4.57;;;16.60;50.40;;;;;;5055459;28;20090;-51
2022/04/16 11:40:09;;;;;;;5.85;4.90;;;16.60;50.80;;;;;;5070299;28;20404;-53
2022/04/16 11:42:39;;;;;;;6.70;4.97;;;16.70;50.10;;;;;;5071041;28;20093;-54
2022/04/16 11:45:14;;;;;;;5.45;4.70;;;16.70;50.40;;;;;;5064858;28;20041;-55
2022/04/16 11:47:43;;;;;;;6.50;4.97;;;16.80;50.10;;;;;;5068190;28;20416;-55
2022/04/16 11:50:13;;;;;;;5.00;4.15;;;16.90;50.00;;;;;;5070290;28;20044;-54
2022/04/16 11:52:48;;;;;;;;;;;17.00;49.60;;;;;;5071235;28;20048;-51
2022/04/16 11:55:18;;;;;;;4.70;3.97;;;17.10;50.30;;;;;;5064224;28;19959;-53
2022/04/16 11:57:53;;;;;;;5.05;4.55;;;17.10;49.00;;;;;;5070309;28;20193;-51
2022/04/16 12:00:26;;;;;;;5.95;5.22;;;17.20;49.00;;;;;;5069650;28;20496;-51
2022/04/16 12:02:56;;;;;;;5.75;5.13;;;17.20;48.70;;;;;;5068418;28;20074;-50
2022/04/16 12:05:28;;;;;;;5.85;5.22;;;17.30;48.60;;;;;;5062077;28;20097;-51
2022/04/16 12:08:00;;;;;;;6.55;5.60;;;17.30;48.90;;;;;;5065950;28;20098;-51
2022/04/16 12:10:39;;;;;;;5.03;4.53;;;17.40;49.60;;;;;;5068822;28;20070;-52
2022/04/16 12:13:13;;;;;;;6.28;4.38;;;17.40;48.70;;;;;;5062413;28;20051;-53
2022/04/16 12:15:42;;;;;;;5.53;4.60;;;17.50;48.30;;;;;;5061041;28;20555;-50
2022/04/16 12:18:16;;;;;;;6.30;5.38;;;17.60;48.00;;;;;;5070594;28;20044;-50
2022/04/16 12:20:48;;;;;;;5.45;4.95;;;17.70;48.70;;;;;;5066574;28;20555;-53
2022/04/16 12:23:24;;;;;;;5.75;4.78;;;17.70;48.00;;;;;;5063174;28;20059;-52
2022/04/16 12:26:06;;;;;;;6.20;5.10;;;17.80;48.10;;;;;;5032396;28;20106;-56
2022/04/16 12:28:35;;;;;;;6.07;5.13;;;17.80;47.40;;;;;;5044372;28;20416;-52
2022/04/16 12:31:03;;;;;;;5.80;4.50;;;17.90;47.60;;;;;;5043281;28;20337;-56
2022/04/16 12:33:30;;;;;;;5.45;4.70;;;17.90;47.60;;;;;;5051437;28;20047;-51
2022/04/16 12:35:58;;;;;;;5.68;5.00;;;18.00;47.20;;;;;;5059442;28;20071;-53
2022/04/16 12:38:27;;;;;;;4.60;4.18;;;18.00;46.80;;;;;;5047190;28;20044;-52
2022/04/16 12:41:08;;;;;;;6.10;4.35;;;18.10;46.70;;;;;;5049450;28;20062;-56
2022/04/16 12:43:37;;;;;;;5.15;4.43;;;18.10;46.10;;;;;;5055293;28;20129;-52
2022/04/16 12:46:04;;;;;;;5.72;4.75;;;18.20;46.70;;;;;;5057102;28;20113;-55
2022/04/16 12:48:31;;;;;;;5.10;4.60;;;18.30;46.60;;;;;;5052564;28;20067;-53
2022/04/16 12:50:58;;;;;;;7.07;5.88;;;18.40;46.90;;;;;;5061042;28;20093;-53
2022/04/16 12:53:26;;;;;;;5.95;5.35;;;18.40;46.10;;;;;;5054071;28;20052;-54
2022/04/16 12:55:52;;;;;;;5.90;5.10;;;18.50;46.20;;;;;;5064506;28;20052;-55
2022/04/16 12:58:19;;;;;;;5.28;4.65;;;18.60;45.90;;;;;;5047772;28;20041;-54
2022/04/16 13:00:46;;;;;;;4.82;4.32;;;18.70;46.00;;;;;;5063237;28;20055;-52
2022/04/16 13:03:14;;;;;;;6.10;5.13;;;18.80;45.90;;;;;;5045442;28;20048;-56
2022/04/16 13:05:41;;;;;;;6.72;5.10;;;18.90;45.20;;;;;;5064166;28;20068;-54
2022/04/16 13:08:08;;;;;;;6.97;5.20;;;19.00;45.30;;;;;;5044856;28;20095;-51
2022/04/16 13:10:35;;;;;;;6.70;5.18;;;19.10;45.00;;;;;;5056114;28;20555;-54
2022/04/16 13:13:04;;;;;;;5.88;5.28;;;19.20;44.30;;;;;;5051389;28;20129;-54
2022/04/16 13:15:31;;;;;;;5.40;4.72;;;19.30;44.80;;;;;;5066770;28;20123;-53